Time;durP1;ratioP1;P1;durP2;ratioP2;P2;SDS_P1;SDS_P2;PMS_P1;PMS_P2;Temp;Humidity;BMP_temperature;BMP_pressure;BME280_temperature;BME280_humidity;BME280_pressure;Samples;Min_cycle;Max_cycle;Signal;HPM_P1;HPM_P2
2021/12/25 00:02:55;;;;;;;1999.90;999.90;;;;;;;-2.03;63.29;100465.44;15599447;28;20053;-60
2021/12/25 00:10:30;;;;;;;1999.90;999.90;;;;;;;-1.98;63.57;100470.97;15615985;28;20045;-58
2021/12/25 00:18:03;;;;;;;1999.90;999.90;;;;;;;-1.92;63.15;100482.78;15615674;28;20420;-61
2021/12/25 00:25:42;;;;;;;1999.90;999.90;;;;;;;-1.59;62.26;100500.91;15588595;28;20407;-59
2021/12/25 00:33:32;;;;;;;1999.90;999.90;;;;;;;-1.98;64.81;100509.25;15589370;28;20042;-61
2021/12/25 00:41:06;;;;;;;1999.90;999.90;;;;;;;-1.56;63.81;100525.88;15603905;28;20386;-58
2021/12/25 00:48:40;;;;;;;1999.90;999.90;;;;;;;-1.69;64.51;100529.00;15606005;28;20048;-65
2021/12/25 00:56:14;;;;;;;1999.90;999.90;;;;;;;-1.72;64.77;100535.00;15580137;28;20517;-65
2021/12/25 01:03:48;;;;;;;1999.90;999.90;;;;;;;-1.83;65.07;100549.63;15580976;28;20065;-58
2021/12/25 01:11:24;;;;;;;1999.90;999.90;;;;;;;-1.92;65.49;100559.34;15572495;28;20045;-57
2021/12/25 01:35:13;;;;;;;1999.90;999.90;;;;;;;-2.06;65.83;100589.00;15784320;28;20052;-58
2021/12/25 01:51:17;;;;;;;1999.90;999.90;;;;;;;-2.32;67.05;100596.81;15827326;28;20496;-61
2021/12/25 01:58:52;;;;;;;1999.90;999.90;;;;;;;-2.40;66.81;100613.66;15818621;28;20040;-56
2021/12/25 02:06:25;;;;;;;1999.90;999.90;;;;;;;-2.50;66.86;100620.84;15828576;28;20136;-59
2021/12/25 02:14:00;;;;;;;1999.90;999.90;;;;;;;-2.56;66.97;100622.69;15798115;28;20090;-59
2021/12/25 02:21:37;;;;;;;1999.90;999.90;;;;;;;-2.68;67.20;100635.59;15890189;27;20044;-58
2021/12/25 02:29:10;;;;;;;1999.90;999.90;;;;;;;-2.75;67.01;100637.66;15808876;28;20064;-59
2021/12/25 02:36:44;;;;;;;;;;;;;;;-2.71;67.19;100645.13;15833362;27;20081;-59
2021/12/25 02:44:16;;;;;;;1999.90;999.90;;;;;;;-3.00;67.47;100641.59;15779077;28;20007;-61
2021/12/25 02:51:54;;;;;;;1999.90;999.90;;;;;;;-3.27;67.94;100651.44;15791714;28;20032;-60
2021/12/25 02:59:26;;;;;;;1999.90;999.90;;;;;;;-3.02;66.83;100659.28;15825913;27;20500;-60
2021/12/25 03:07:00;;;;;;;1999.90;999.90;;;;;;;-3.12;67.45;100672.78;15799890;28;20032;-59
2021/12/25 03:14:39;;;;;;;1999.90;999.90;;;;;;;-3.08;66.48;100679.38;15803755;28;20044;-58
2021/12/25 03:22:14;;;;;;;1999.90;999.90;;;;;;;-3.22;67.41;100690.59;15808292;27;20127;-58
2021/12/25 03:29:47;;;;;;;1999.90;999.90;;;;;;;-3.33;67.15;100687.91;15784145;28;20049;-60
2021/12/25 03:37:22;;;;;;;1999.90;999.90;;;;;;;-3.32;67.12;100700.50;15819698;27;20405;-59
2021/12/25 03:44:55;;;;;;;1999.90;999.90;;;;;;;-3.40;66.97;100693.50;15762876;28;20082;-61
2021/12/25 04:00:27;;;;;;;1999.90;999.90;;;;;;;-3.59;67.75;100683.81;15865418;28;20166;-58
2021/12/25 04:08:05;;;;;;;1999.90;999.90;;;;;;;-3.65;67.22;100691.03;15778925;28;20070;-59
2021/12/25 04:15:39;;;;;;;1999.90;999.90;;;;;;;-3.60;67.67;100688.44;15772483;28;20055;-59
2021/12/25 04:23:21;;;;;;;1999.90;999.90;;;;;;;-3.69;67.04;100700.78;15760417;28;20117;-59
2021/12/25 04:31:11;;;;;;;1999.90;999.90;;;;;;;-3.86;67.65;100708.84;15745457;28;20123;-58
2021/12/25 05:02:26;;;;;;;1999.90;999.90;;;;;;;-3.73;67.45;100715.97;15764114;28;20044;-58
2021/12/25 05:10:20;;;;;;;1999.90;999.90;;;;;;;-3.71;66.41;100722.03;15790362;28;20396;-58
2021/12/25 05:17:54;;;;;;;1999.90;999.90;;;;;;;-3.80;66.23;100734.34;15783797;28;20044;-60
2021/12/25 05:25:28;;;;;;;1999.90;999.90;;;;;;;-3.96;67.36;100737.78;15767738;28;20140;-61
2021/12/25 05:33:04;;;;;;;1999.90;999.90;;;;;;;-3.97;66.81;100747.03;15768833;28;20081;-58
2021/12/25 05:40:59;;;;;;;1999.90;999.90;;;;;;;-4.02;66.91;100747.75;15768450;28;20052;-59
2021/12/25 05:48:35;;;;;;;1999.90;999.90;;;;;;;-4.12;67.30;100753.78;15798449;28;20039;-59
2021/12/25 05:56:28;;;;;;;1999.90;999.90;;;;;;;-4.01;66.89;100764.94;15755043;28;20044;-60
2021/12/25 06:04:22;;;;;;;1999.90;999.90;;;;;;;-4.11;67.24;100771.78;15765214;28;20048;-61
2021/12/25 06:11:56;;;;;;;1999.90;999.90;;;;;;;-4.07;66.44;100767.53;15770769;28;20040;-59
2021/12/25 06:19:28;;;;;;;1999.90;999.90;;;;;;;-4.14;66.56;100780.44;15783208;28;20047;-59
2021/12/25 06:27:23;;;;;;;1999.90;999.90;;;;;;;-4.16;65.98;100781.75;15790794;28;20516;-58
2021/12/25 06:35:20;;;;;;;1999.90;999.90;;;;;;;-4.29;66.12;100788.22;15796421;28;20117;-63
2021/12/25 06:43:29;;;;;;;1999.90;999.90;;;;;;;-4.43;66.52;100798.50;15786684;28;20059;-61
2021/12/25 06:51:02;;;;;;;1999.90;999.90;;;;;;;-4.44;66.52;100805.00;15791239;28;20044;-61
2021/12/25 06:58:53;;;;;;;1999.90;999.90;;;;;;;-4.39;66.45;100815.19;15803342;28;20404;-57
2021/12/25 07:06:26;;;;;;;1999.90;999.90;;;;;;;-4.44;66.72;100826.81;15819376;27;20186;-59
2021/12/25 07:14:15;;;;;;;1999.90;999.90;;;;;;;-4.46;66.09;100811.75;15820621;28;20036;-59
2021/12/25 07:21:54;;;;;;;1999.90;999.90;;;;;;;-4.60;66.60;100800.22;15781541;28;20047;-60
2021/12/25 07:29:40;;;;;;;1999.90;999.90;;;;;;;-4.54;65.92;100817.53;15807428;28;20068;-59
2021/12/25 07:37:14;;;;;;;1999.90;999.90;;;;;;;-4.53;65.95;100821.91;15767875;28;20048;-61
2021/12/25 07:44:53;;;;;;;1999.90;999.90;;;;;;;-4.45;65.91;100830.59;15760344;28;20041;-60
2021/12/25 07:52:26;;;;;;;1999.90;999.90;;;;;;;-4.21;65.73;100836.09;15764529;28;20124;-61
2021/12/25 08:00:00;;;;;;;1999.90;999.90;;;;;;;-4.31;66.34;100836.69;15785812;28;20684;-61
2021/12/25 08:07:33;;;;;;;1999.90;999.90;;;;;;;-4.28;66.51;100858.00;15743814;28;20489;-62
2021/12/25 08:15:08;;;;;;;1999.90;999.90;;;;;;;-4.07;66.64;100864.81;15783721;28;20168;-61
2021/12/25 08:22:42;;;;;;;1999.90;999.90;;;;;;;-3.82;66.96;100870.94;15788739;28;20098;-63
2021/12/25 08:30:36;;;;;;;1999.90;999.90;;;;;;;-3.68;67.61;100878.88;15756435;28;20040;-61
2021/12/25 08:38:38;;;;;;;1999.90;999.90;;;;;;;-3.66;67.60;100887.66;15749289;28;20513;-60
2021/12/25 08:46:16;;;;;;;1999.90;999.90;;;;;;;-3.22;67.29;100889.84;15783365;28;20044;-61
2021/12/25 08:53:49;;;;;;;1999.90;999.90;;;;;;;-3.11;66.44;100887.34;15779633;28;20423;-61
2021/12/25 09:01:23;;;;;;;1999.90;999.90;;;;;;;-2.73;66.34;100901.28;15767471;28;20042;-60
2021/12/25 09:08:55;;;;;;;1999.90;999.90;;;;;;;-2.24;66.00;100901.75;15776446;28;20124;-62
2021/12/25 09:16:29;;;;;;;1999.90;999.90;;;;;;;-1.39;64.78;100905.44;15782897;28;20592;-61
2021/12/25 09:24:02;;;;;;;1999.90;999.90;;;;;;;0.30;61.05;100912.78;15797061;28;20100;-60
2021/12/25 09:31:36;;;;;;;1999.90;999.90;;;;;;;3.06;51.55;100918.31;15796054;28;20052;-62
2021/12/25 09:39:09;;;;;;;1999.90;999.90;;;;;;;3.89;50.69;100935.16;15797028;28;20048;-62
2021/12/25 09:46:43;;;;;;;1999.90;999.90;;;;;;;3.47;50.00;100930.91;15790308;28;20047;-62
2021/12/25 09:54:18;;;;;;;1999.90;999.90;;;;;;;2.97;51.30;100939.28;15795241;28;20036;-61
2021/12/25 10:01:54;;;;;;;1999.90;999.90;;;;;;;2.56;51.73;100931.00;15782444;28;20049;-62
2021/12/25 10:09:27;;;;;;;1999.90;999.90;;;;;;;2.03;53.29;100925.69;15797943;28;20419;-61
2021/12/25 10:17:13;;;;;;;1999.90;999.90;;;;;;;2.84;52.38;100938.72;15809320;28;20046;-63
2021/12/25 10:24:50;;;;;;;1999.90;999.90;;;;;;;4.76;49.96;100943.72;15803919;28;20066;-64
2021/12/25 10:32:25;;;;;;;1999.90;999.90;;;;;;;4.67;47.86;100944.63;15808114;28;20097;-67
2021/12/25 10:39:58;;;;;;;1999.90;999.90;;;;;;;5.47;45.91;100931.97;15804217;28;20044;-66
2021/12/25 10:47:32;;;;;;;1999.90;999.90;;;;;;;6.72;43.60;100942.78;15804872;28;20085;-59
2021/12/25 10:55:14;;;;;;;1999.90;999.90;;;;;;;7.46;40.00;100940.94;15791218;28;20055;-58
2021/12/25 11:02:51;;;;;;;1999.90;999.90;;;;;;;7.01;40.53;100939.00;15805685;28;20487;-65
2021/12/25 11:10:23;;;;;;;1999.90;999.90;;;;;;;7.97;38.74;100948.25;15797607;28;20130;-64
2021/12/25 11:18:06;;;;;;;1999.90;999.90;;;;;;;8.43;35.73;100950.06;15800777;28;20048;-64
2021/12/25 11:25:40;;;;;;;1999.90;999.90;;;;;;;7.85;36.10;100944.38;15813223;28;20405;-65
2021/12/25 11:33:14;;;;;;;1999.90;999.90;;;;;;;9.65;34.36;100944.19;15817015;27;20413;-62
2021/12/25 11:40:52;;;;;;;1999.90;999.90;;;;;;;10.70;32.21;100943.28;15775195;28;20458;-62
2021/12/25 11:48:26;;;;;;;1999.90;999.90;;;;;;;13.44;27.67;100956.47;15768308;28;20040;-62
2021/12/25 12:04:01;;;;;;;1999.90;999.90;;;;;;;12.11;29.05;100955.44;15784935;28;20127;-62
2021/12/25 12:11:34;;;;;;;1999.90;999.90;;;;;;;13.72;26.97;100937.84;15806824;28;20093;-63
2021/12/25 12:19:46;;;;;;;1999.90;999.90;;;;;;;13.33;27.22;100949.69;15772313;28;20070;-61
2021/12/25 12:27:32;;;;;;;1999.90;999.90;;;;;;;11.97;28.34;100936.06;15833143;27;20426;-63
2021/12/25 12:35:28;;;;;;;1999.90;999.90;;;;;;;15.23;25.70;100936.53;15768269;28;20044;-62
2021/12/25 12:43:03;;;;;;;1999.90;999.90;;;;;;;16.24;24.48;100942.75;15794484;28;20036;-62
2021/12/25 12:50:37;;;;;;;1999.90;999.90;;;;;;;16.24;23.92;100937.09;15795837;28;20600;-60
2021/12/25 12:58:14;;;;;;;1999.90;999.90;;;;;;;13.07;27.26;100942.34;15797729;28;20123;-62
2021/12/25 13:05:53;;;;;;;1999.90;999.90;;;;;;;8.82;32.13;100948.59;15794536;28;20044;-62
2021/12/25 13:13:30;;;;;;;1999.90;999.90;;;;;;;8.57;34.21;100945.28;15804988;28;20524;-63
2021/12/25 13:21:08;;;;;;;1999.90;999.90;;;;;;;9.17;33.43;100956.06;15794446;28;20442;-60
2021/12/25 13:28:46;;;;;;;1999.90;999.90;;;;;;;8.76;34.56;100947.09;15788081;28;20115;-61
2021/12/25 13:36:23;;;;;;;1999.90;999.90;;;;;;;6.04;37.51;100955.16;15779682;28;20047;-63
2021/12/25 13:44:13;;;;;;;1999.90;999.90;;;;;;;2.43;46.24;100959.91;15788730;28;20040;-62
2021/12/25 13:51:45;;;;;;;1999.90;999.90;;;;;;;1.79;47.75;100953.94;15795510;28;20051;-61
2021/12/25 13:59:20;;;;;;;1999.90;999.90;;;;;;;2.33;47.83;100948.06;15793073;28;20048;-62
2021/12/25 14:06:52;;;;;;;1999.90;999.90;;;;;;;1.15;50.33;100944.00;15790008;28;20082;-62
2021/12/25 14:14:28;;;;;;;1999.90;999.90;;;;;;;0.85;50.77;100942.66;15764050;28;20075;-68
2021/12/25 14:22:04;;;;;;;1999.90;999.90;;;;;;;0.95;51.84;100955.66;15773409;28;20075;-64
2021/12/25 14:29:38;;;;;;;1999.90;999.90;;;;;;;1.00;51.35;100957.59;15789926;28;20105;-64
2021/12/25 14:37:11;;;;;;;1999.90;999.90;;;;;;;0.68;52.26;100976.84;15782101;28;20529;-64
2021/12/25 14:44:44;;;;;;;1999.90;999.90;;;;;;;0.76;51.47;100976.38;15793242;28;20439;-62
2021/12/25 14:52:22;;;;;;;1999.90;999.90;;;;;;;0.82;51.93;100975.31;15810594;28;20036;-64
2021/12/25 14:59:58;;;;;;;1999.90;999.90;;;;;;;0.82;52.14;100980.81;15792069;28;20036;-67
2021/12/25 15:07:31;;;;;;;1999.90;999.90;;;;;;;0.51;52.89;100975.03;15810161;28;20657;-64
2021/12/25 15:15:06;;;;;;;;;;;;;;;0.50;52.33;100967.91;15819699;28;20036;-63
2021/12/25 15:22:40;;;;;;;1999.90;999.90;;;;;;;0.21;54.52;100980.25;15831026;28;20319;-62
2021/12/25 15:30:17;;;;;;;1999.90;999.90;;;;;;;-0.13;56.24;101002.31;15803717;28;20674;-65
2021/12/25 15:37:51;;;;;;;1999.90;999.90;;;;;;;-0.42;57.59;100992.59;15792197;28;20563;-66
2021/12/25 15:45:28;;;;;;;1999.90;999.90;;;;;;;-0.65;57.92;100999.97;15742177;28;20064;-61
2021/12/25 15:53:03;;;;;;;1999.90;999.90;;;;;;;-0.96;58.75;100997.84;15805111;28;20068;-64
2021/12/25 16:00:40;;;;;;;1999.90;999.90;;;;;;;-1.02;59.04;101004.34;15751703;28;20409;-62
2021/12/25 16:08:13;;;;;;;1999.90;999.90;;;;;;;-1.28;60.33;101005.81;15767479;28;20032;-64
2021/12/25 16:15:51;;;;;;;1999.90;999.90;;;;;;;-1.22;59.95;101013.88;15772389;28;20048;-66
2021/12/25 16:23:23;;;;;;;1999.90;999.90;;;;;;;-1.19;59.09;101016.13;15792517;28;20044;-63
2021/12/25 16:30:58;;;;;;;1999.90;999.90;;;;;;;-1.18;59.18;101001.34;15792176;28;20112;-67
2021/12/25 16:38:31;;;;;;;1999.90;999.90;;;;;;;-1.42;59.77;101016.25;15800153;28;20626;-62
2021/12/25 16:46:07;;;;;;;1999.90;999.90;;;;;;;-1.70;60.38;101016.28;15799071;28;20378;-66
2021/12/25 16:53:41;;;;;;;1999.90;999.90;;;;;;;-2.06;61.42;101021.88;15800549;28;20039;-65
2021/12/25 17:01:15;;;;;;;;;;;;;;;-1.96;61.63;101037.66;15766923;28;20603;-65
2021/12/25 17:08:47;;;;;;;1999.90;999.90;;;;;;;-2.22;61.71;101030.81;15803131;28;19920;-66
2021/12/25 17:16:21;;;;;;;1999.90;999.90;;;;;;;-2.28;61.83;101039.16;15797109;28;20059;-63
2021/12/25 17:23:54;;;;;;;1999.90;999.90;;;;;;;-2.40;62.24;101045.47;15768404;28;20427;-61
2021/12/25 17:31:28;;;;;;;1999.90;999.90;;;;;;;-2.55;62.35;101050.59;15792631;28;20044;-63
2021/12/25 17:39:01;;;;;;;1999.90;999.90;;;;;;;-2.70;62.60;101052.97;15792512;28;20044;-61
2021/12/25 17:46:35;;;;;;;1999.90;999.90;;;;;;;-2.82;62.41;101050.22;15782507;28;20058;-63
2021/12/25 17:54:08;;;;;;;1999.90;999.90;;;;;;;-3.02;62.76;101061.50;15801970;28;20040;-62
2021/12/25 18:01:42;;;;;;;;;;;;;;;-3.01;63.40;101057.69;15793952;28;20040;-67
2021/12/25 18:09:15;;;;;;;1999.90;999.90;;;;;;;-3.20;63.53;101050.66;15821793;27;19920;-60
2021/12/25 18:16:50;;;;;;;1999.90;999.90;;;;;;;-3.19;63.25;101057.78;15805752;28;20047;-63
2021/12/25 18:24:24;;;;;;;1999.90;999.90;;;;;;;-3.42;63.93;101077.66;15799842;28;20047;-60
2021/12/25 18:32:03;;;;;;;1999.90;999.90;;;;;;;-3.46;63.45;101086.50;15803221;28;20044;-63
2021/12/25 18:39:38;;;;;;;1999.90;999.90;;;;;;;-3.49;63.69;101079.63;15803103;28;20048;-63
2021/12/25 18:47:12;;;;;;;1999.90;999.90;;;;;;;-3.60;63.28;101072.22;15804689;28;20546;-62
2021/12/25 18:54:46;;;;;;;1999.90;999.90;;;;;;;-3.75;63.29;101074.50;15803101;28;20509;-65
2021/12/25 19:02:20;;;;;;;1999.90;999.90;;;;;;;-3.77;63.28;101072.03;15802400;28;20073;-65
2021/12/25 19:09:53;;;;;;;1999.90;999.90;;;;;;;-3.96;63.70;101071.25;15785520;28;20093;-60
2021/12/25 19:17:27;;;;;;;1999.90;999.90;;;;;;;-4.07;64.19;101077.44;15792863;28;20048;-62
2021/12/25 19:25:00;;;;;;;1999.90;999.90;;;;;;;-4.10;63.92;101094.25;15801668;28;20469;-62
2021/12/25 19:32:34;;;;;;;;;;;;;;;-4.10;63.79;101080.63;15780052;28;20052;-64
2021/12/25 19:40:12;;;;;;;1999.90;999.90;;;;;;;-4.28;63.78;101086.06;15784962;28;19920;-63
2021/12/25 19:47:47;;;;;;;1999.90;999.90;;;;;;;-4.40;63.68;101083.25;15797248;28;20094;-62
2021/12/25 19:55:23;;;;;;;1999.90;999.90;;;;;;;-4.53;64.28;101086.94;15789985;28;20040;-62
2021/12/25 20:02:58;;;;;;;1999.90;999.90;;;;;;;-4.42;63.03;101074.47;15791986;28;20136;-61
2021/12/25 20:10:35;;;;;;;1999.90;999.90;;;;;;;-4.53;63.20;101083.38;15783588;28;20051;-64
2021/12/25 20:18:09;;;;;;;1999.90;999.90;;;;;;;-4.44;63.93;101091.03;15788936;28;20040;-63
2021/12/25 20:25:43;;;;;;;1999.90;999.90;;;;;;;-4.56;63.53;101092.84;15760674;28;20055;-64
2021/12/25 20:33:18;;;;;;;1999.90;999.90;;;;;;;-4.75;64.86;101078.34;15786299;28;20120;-64
2021/12/25 20:40:51;;;;;;;1999.90;999.90;;;;;;;-4.77;64.35;101083.19;15802774;28;20143;-65
2021/12/25 20:48:28;;;;;;;1999.90;999.90;;;;;;;-4.69;63.47;101079.34;15780123;28;20051;-66
2021/12/25 20:56:02;;;;;;;1999.90;999.90;;;;;;;-4.81;63.80;101084.69;15773317;28;20090;-65
2021/12/25 21:03:36;;;;;;;1999.90;999.90;;;;;;;-4.91;64.10;101086.22;15818546;27;20473;-65
2021/12/25 21:11:10;;;;;;;1999.90;999.90;;;;;;;-4.97;63.29;101083.34;15802317;28;20052;-66
2021/12/25 21:18:44;;;;;;;1999.90;999.90;;;;;;;-5.05;63.50;101077.34;15771245;28;20036;-63
2021/12/25 21:26:17;;;;;;;1999.90;999.90;;;;;;;-5.18;63.33;101080.19;15759465;28;20107;-65
2021/12/25 21:33:51;;;;;;;1999.90;999.90;;;;;;;-5.41;64.22;101078.88;15752263;28;20049;-65
2021/12/25 21:41:25;;;;;;;1999.90;999.90;;;;;;;-5.44;63.98;101070.28;15832969;28;20113;-66
2021/12/25 21:49:00;;;;;;;1999.90;999.90;;;;;;;-5.40;64.30;101072.38;15826231;28;20400;-63
2021/12/25 21:56:33;;;;;;;1999.90;999.90;;;;;;;-5.54;64.86;101071.59;15844814;27;20044;-65
2021/12/25 22:04:13;;;;;;;1999.90;999.90;;;;;;;-5.35;64.85;101069.81;15794151;28;20492;-65
2021/12/25 22:11:47;;;;;;;1999.90;999.90;;;;;;;-5.27;63.72;101064.13;15806958;28;20159;-61
2021/12/25 22:19:21;;;;;;;;;;;;;;;-5.36;62.56;101061.88;15807021;28;20069;-62
2021/12/25 22:26:55;;;;;;;1999.90;999.90;;;;;;;-5.79;64.55;101061.72;15794649;28;19974;-64
2021/12/25 22:34:30;;;;;;;;;;;;;;;-5.65;64.17;101066.03;15808058;28;20054;-66
2021/12/25 22:42:03;;;;;;;1999.90;999.90;;;;;;;-5.73;64.26;101074.44;15810014;28;20070;-66
2021/12/25 22:49:39;;;;;;;1999.90;999.90;;;;;;;-5.73;64.23;101078.03;15815660;28;20055;-66
2021/12/25 22:57:13;;;;;;;1999.90;999.90;;;;;;;-5.78;64.35;101060.69;15787291;28;20044;-68
2021/12/25 23:04:47;;;;;;;1999.90;999.90;;;;;;;-5.85;63.62;101066.13;15791046;28;20140;-67
2021/12/25 23:12:21;;;;;;;1999.90;999.90;;;;;;;-5.92;63.64;101047.19;15785727;28;20058;-67
2021/12/25 23:19:55;;;;;;;1999.90;999.90;;;;;;;-5.87;63.80;101036.47;15782546;28;20048;-66
2021/12/25 23:27:27;;;;;;;1999.90;999.90;;;;;;;-5.94;63.12;101045.72;15835072;27;20040;-65
2021/12/25 23:35:02;;;;;;;1999.90;999.90;;;;;;;-6.01;63.04;101036.78;15778502;28;20394;-65
2021/12/25 23:42:40;;;;;;;1999.90;999.90;;;;;;;-6.04;62.69;101035.34;15776291;28;20036;-67
2021/12/25 23:50:14;;;;;;;1999.90;999.90;;;;;;;-6.22;64.00;101024.34;15775321;28;20489;-66
2021/12/25 23:57:48;;;;;;;1999.90;999.90;;;;;;;-6.16;64.37;101023.47;15779817;28;20040;-65
